Main page
METAR-TAF:

METAR-TAF

Airports :

Reus Airport

Reus, Spain

latitude: 41-09N, longitude: 001-10E, elevation: 71 m

Current weather observation

The report was made 36 minutes ago, at 09:30 UTC
Wind 6 kt from the East/Southeast, varying between East/Northeast and South/Southwest
Temperature 27°C
Humidity 54%
Pressure 1018 hPa
Visibility 10 km or more
Few clouds at a height of 2000 ft

METAR: LERS 230930Z 12006KT 070V210 9999 FEW020 27/17 Q1018

Time: 12:06 (10:06 UTC)

Forecast

The report was made 2 hours and 6 minutes ago, at 08:00 UTC
Forecast valid from 23 at 09 UTC to 24 at 09 UTC
Wind 4 kt from variable directions
Visibility 10 km or more
Few clouds at a height of 2500 ft
Becoming
from 23 at 09 UTC to 23 at 11 UTC
Wind 10 kt from the Southeast
Becoming
from 23 at 18 UTC to 23 at 20 UTC
Wind 3 kt from variable directions

TAF: LERS 230800Z 2309/2409 VRB04KT 9999 FEW025 TX29/2312Z TN18/2405Z BECMG 2309/2311 14010KT BECMG 2318/2320 VRB03KT

Weather observations and forecasts of more than 4000 airports (METAR and TAF reports).

The available stations are represented by yellow and red dots on the map.

Hover mouse over dot to see the name of the station.

Then click to see weather observations and forecasts.

To change the map : click on the green buttons with a black cross to zoom in, on the green button with a dash to zoom out, or on the green arrows for adjacent maps.


METAR-TAF: